Time;durP1;ratioP1;P1;durP2;ratioP2;P2;SDS_P1;SDS_P2;PMS_P1;PMS_P2;Temp;Humidity;BMP_temperature;BMP_pressure;BME280_temperature;BME280_humidity;BME280_pressure;Samples;Min_cycle;Max_cycle;Signal;HPM_P1;HPM_P2
2022/07/19 00:00:06;;;;;;;5.97;2.80;;;;;18.10;96957.00;;;;8328892;28;20625;-69
2022/07/19 00:04:11;;;;;;;9.40;3.13;;;;;18.00;96951.00;;;;8327380;28;20259;-69
2022/07/19 00:08:14;;;;;;;7.20;3.13;;;;;17.80;96946.00;;;;8328114;28;20300;-69
2022/07/19 00:12:51;;;;;;;3.67;2.67;;;;;17.60;96953.00;;;;8328217;28;20225;-70
2022/07/19 00:16:54;;;;;;;5.68;2.75;;;;;17.50;96945.00;;;;8328181;28;20733;-70
2022/07/19 00:20:59;;;;;;;4.15;2.92;;;;;17.50;96945.00;;;;8327600;28;20221;-71
2022/07/19 00:25:02;;;;;;;7.78;3.00;;;;;17.50;96942.00;;;;8327743;28;20245;-71
2022/07/19 00:29:39;;;;;;;2.90;2.70;;;;;17.50;96941.00;;;;8327427;28;20322;-72
2022/07/19 00:33:42;;;;;;;8.57;2.90;;;;;17.40;96942.00;;;;8327623;28;20309;-72
2022/07/19 00:37:47;;;;;;;13.23;3.03;;;;;17.20;96937.00;;;;8327281;28;20220;-72
2022/07/19 00:41:50;;;;;;;9.25;3.53;;;;;17.10;96944.00;;;;8328300;28;20229;-72
2022/07/19 00:45:54;;;;;;;8.40;2.88;;;;;17.00;96938.00;;;;8327610;28;20591;-72
2022/07/19 00:49:57;;;;;;;5.65;2.80;;;;;17.00;96933.00;;;;8333573;28;20244;-73
2022/07/19 00:54:03;;;;;;;8.85;2.95;;;;;17.10;96936.00;;;;8332807;28;20319;-72
2022/07/19 00:58:08;;;;;;;6.97;2.97;;;;;17.10;96927.00;;;;8333507;28;20427;-72
2022/07/19 01:02:13;;;;;;;6.38;3.05;;;;;17.10;96925.00;;;;8333556;28;20342;-73
2022/07/19 01:06:17;;;;;;;7.05;2.70;;;;;17.00;96924.00;;;;8334011;28;20543;-73
2022/07/19 01:10:21;;;;;;;16.38;4.43;;;;;16.90;96924.00;;;;8332775;28;20307;-73
2022/07/19 01:14:56;;;;;;;5.55;2.92;;;;;16.80;96920.00;;;;8332217;28;20263;-72
2022/07/19 01:18:59;;;;;;;5.35;3.13;;;;;16.80;96930.00;;;;8333525;28;20631;-72
2022/07/19 01:23:04;;;;;;;7.82;2.90;;;;;16.80;96925.00;;;;8332220;28;20247;-72
2022/07/19 01:27:07;;;;;;;5.30;3.00;;;;;16.90;96924.00;;;;8332358;28;20316;-70
2022/07/19 01:31:44;;;;;;;4.18;2.92;;;;;16.80;96934.00;;;;8331874;28;20234;-72
2022/07/19 01:35:47;;;;;;;6.90;3.05;;;;;16.60;96931.00;;;;8332132;28;20228;-71
2022/07/19 01:39:56;;;;;;;6.28;2.97;;;;;16.50;96933.00;;;;8332094;28;20608;-71
2022/07/19 01:43:59;;;;;;;4.40;2.78;;;;;16.40;96929.00;;;;8332900;28;20221;-71
2022/07/19 01:48:02;;;;;;;5.95;3.08;;;;;16.40;96926.00;;;;8332668;28;20243;-71
2022/07/19 01:52:06;;;;;;;4.20;3.00;;;;;16.20;96942.00;;;;8331438;28;20323;-72
2022/07/19 01:56:11;;;;;;;4.35;3.22;;;;;16.20;96940.00;;;;8332636;28;20315;-73
2022/07/19 02:00:48;;;;;;;4.78;3.20;;;;;16.10;96939.00;;;;8331015;28;20231;-73
2022/07/19 02:04:51;;;;;;;8.90;3.28;;;;;16.20;96944.00;;;;8330798;28;20281;-73
2022/07/19 02:08:55;;;;;;;8.35;3.38;;;;;16.20;96943.00;;;;8330988;28;20230;-72
2022/07/19 02:13:33;;;;;;;8.68;3.38;;;;;16.20;96939.00;;;;8331612;28;20312;-72
2022/07/19 02:17:36;;;;;;;6.68;3.00;;;;;16.00;96925.00;;;;8329936;28;20589;-72
2022/07/19 02:21:40;;;;;;;6.68;3.05;;;;;15.90;96930.00;;;;8330949;28;20221;-72
2022/07/19 02:25:43;;;;;;;5.95;3.50;;;;;15.90;96926.00;;;;8331287;28;20306;-71
2022/07/19 02:29:48;;;;;;;4.03;3.20;;;;;15.80;96926.00;;;;8330491;28;20339;-71
2022/07/19 02:33:51;;;;;;;5.20;3.60;;;;;15.70;96924.00;;;;8330907;28;20677;-71
2022/07/19 02:37:54;;;;;;;6.63;3.22;;;;;15.80;96925.00;;;;8330502;28;20306;-71
2022/07/19 02:41:58;;;;;;;3.55;3.22;;;;;15.80;96925.00;;;;8330683;28;20334;-71
2022/07/19 02:46:02;;;;;;;4.50;2.97;;;;;15.70;96925.00;;;;8329619;28;20228;-71
2022/07/19 02:50:07;;;;;;;5.20;3.20;;;;;15.70;96931.00;;;;8329972;28;20318;-71
2022/07/19 02:54:10;;;;;;;6.10;3.20;;;;;15.70;96926.00;;;;8329291;28;20306;-72
2022/07/19 02:58:47;;;;;;;8.32;3.25;;;;;15.60;96922.00;;;;8328009;28;20296;-72
2022/07/19 03:02:52;;;;;;;4.10;3.15;;;;;15.60;96923.00;;;;8299365;23;20725;-74
2022/07/19 03:06:55;;;;;;;7.60;3.35;;;;;15.50;96914.00;;;;8234039;28;20225;-75
2022/07/19 03:10:58;;;;;;;8.93;3.50;;;;;15.40;96918.00;;;;8205872;28;20324;-75
2022/07/19 03:15:05;;;;;;;4.68;3.40;;;;;15.30;96921.00;;;;8222232;28;20221;-74
2022/07/19 03:19:10;;;;;;;6.35;3.45;;;;;15.30;96925.00;;;;8236620;28;20576;-73
2022/07/19 03:23:13;;;;;;;5.15;3.53;;;;;15.20;96930.00;;;;8238258;28;20229;-74
2022/07/19 03:27:16;;;;;;;5.85;3.70;;;;;15.20;96934.00;;;;8241044;28;20243;-74
2022/07/19 03:31:19;;;;;;;12.13;4.60;;;;;15.20;96928.00;;;;8235646;28;20618;-74
2022/07/19 03:35:24;;;;;;;6.13;3.60;;;;;15.20;96936.00;;;;8241286;28;20244;-74
2022/07/19 03:39:27;;;;;;;6.72;3.38;;;;;15.20;96931.00;;;;8241142;28;20335;-74
2022/07/19 03:43:32;;;;;;;9.07;4.00;;;;;15.30;96935.00;;;;8237494;28;20235;-76
2022/07/19 03:47:35;;;;;;;4.95;3.60;;;;;15.30;96938.00;;;;8238862;28;20331;-75
2022/07/19 03:51:40;;;;;;;3.60;3.10;;;;;15.30;96935.00;;;;8245078;28;20253;-75
2022/07/19 03:55:43;;;;;;;7.35;3.40;;;;;15.30;96935.00;;;;8225219;28;20424;-75
2022/07/19 03:59:46;;;;;;;5.15;3.53;;;;;15.30;96935.00;;;;8218917;28;20228;-76
2022/07/19 04:03:50;;;;;;;6.07;3.55;;;;;15.30;96939.00;;;;8239164;28;20221;-77
2022/07/19 04:07:54;;;;;;;9.20;3.30;;;;;15.50;96950.00;;;;8248120;28;20249;-77
2022/07/19 04:11:57;;;;;;;3.60;3.00;;;;;15.60;96944.00;;;;8234501;28;20236;-77
2022/07/19 04:16:01;;;;;;;10.13;3.58;;;;;15.80;96941.00;;;;8241573;28;20314;-75
2022/07/19 04:20:07;;;;;;;6.63;3.75;;;;;16.10;96944.00;;;;8227610;28;20248;-75
2022/07/19 04:24:11;;;;;;;8.40;3.90;;;;;16.30;96940.00;;;;8240374;28;20221;-74
2022/07/19 04:28:15;;;;;;;7.95;3.60;;;;;16.50;96931.00;;;;8252011;28;20222;-74
2022/07/19 04:32:18;;;;;;;6.20;3.35;;;;;16.70;96945.00;;;;8251571;28;20233;-75
2022/07/19 04:36:23;;;;;;;5.90;3.50;;;;;16.90;96938.00;;;;8246965;28;20238;-73
2022/07/19 04:40:27;;;;;;;7.25;3.78;;;;;17.20;96947.00;;;;8240238;28;20409;-74
2022/07/19 04:44:31;;;;;;;11.90;4.03;;;;;17.50;96950.00;;;;8241625;28;20223;-73
2022/07/19 04:48:34;;;;;;;8.43;3.72;;;;;17.70;96953.00;;;;8252409;28;20938;-74
2022/07/19 04:52:37;;;;;;;4.45;3.53;;;;;18.10;96954.00;;;;8245551;28;20241;-74
2022/07/19 04:56:42;;;;;;;6.90;3.80;;;;;18.40;96958.00;;;;8249272;28;20245;-74
2022/07/19 05:00:45;;;;;;;4.55;3.47;;;;;18.70;96953.00;;;;8249982;28;20283;-73
2022/07/19 05:04:48;;;;;;;16.80;3.90;;;;;19.20;96951.00;;;;8248100;28;20240;-72
2022/07/19 05:08:52;;;;;;;19.85;4.38;;;;;19.60;96946.00;;;;8233920;28;20226;-74
2022/07/19 05:12:57;;;;;;;10.95;3.55;;;;;20.10;96946.00;;;;8252061;28;20325;-73
2022/07/19 05:17:00;;;;;;;7.10;4.18;;;;;20.50;96945.00;;;;8245916;28;20311;-74
2022/07/19 05:21:03;;;;;;;6.10;3.78;;;;;20.80;96938.00;;;;8242959;28;20262;-74
2022/07/19 05:25:09;;;;;;;5.97;3.47;;;;;21.10;96943.00;;;;8241407;28;20675;-73
2022/07/19 05:29:13;;;;;;;6.00;3.53;;;;;21.40;96941.00;;;;8246409;28;20254;-73
2022/07/19 05:33:17;;;;;;;4.95;3.42;;;;;21.70;96948.00;;;;8212633;28;20236;-73
2022/07/19 05:37:20;;;;;;;6.53;3.40;;;;;22.10;96950.00;;;;8210653;28;20238;-74
2022/07/19 05:41:24;;;;;;;6.15;3.33;;;;;22.30;96939.00;;;;8213714;28;20315;-76
2022/07/19 05:45:28;;;;;;;4.80;3.10;;;;;22.50;96946.00;;;;8241750;28;20431;-74
2022/07/19 05:49:31;;;;;;;6.28;3.60;;;;;22.60;96950.00;;;;8242379;28;20670;-74
2022/07/19 05:53:36;;;;;;;4.85;2.67;;;;;22.70;96943.00;;;;8243418;28;20326;-75
2022/07/19 05:57:39;;;;;;;7.35;2.80;;;;;23.10;96949.00;;;;8246593;28;20234;-75
2022/07/19 06:01:44;;;;;;;2.67;2.40;;;;;23.40;96941.00;;;;8246977;28;21001;-76
2022/07/19 06:05:47;;;;;;;3.42;2.20;;;;;23.90;96946.00;;;;8245948;28;20230;-73
2022/07/19 06:09:50;;;;;;;3.17;2.45;;;;;24.40;96944.00;;;;8240984;28;20230;-73
2022/07/19 06:13:55;;;;;;;2.45;2.03;;;;;24.90;96958.00;;;;8245752;28;20245;-75
2022/07/19 06:18:00;;;;;;;3.38;2.30;;;;;25.50;96957.00;;;;8246002;28;20580;-74
2022/07/19 06:22:09;;;;;;;5.07;2.05;;;;;26.20;96958.00;;;;8223966;28;20228;-80
2022/07/19 06:26:13;;;;;;;3.20;2.30;;;;;26.70;96962.00;;;;8235928;28;20310;-73
2022/07/19 06:30:16;;;;;;;3.45;2.20;;;;;27.00;96952.00;;;;8246504;28;20226;-73
2022/07/19 06:34:21;;;;;;;5.75;2.03;;;;;27.20;96964.00;;;;8240613;28;20239;-74
2022/07/19 06:38:24;;;;;;;3.45;2.08;;;;;27.80;96963.00;;;;8232450;28;20266;-74
2022/07/19 06:42:27;;;;;;;3.25;2.25;;;;;28.60;96965.00;;;;8241584;28;20265;-74
2022/07/19 06:46:30;;;;;;;2.30;2.10;;;;;29.00;96961.00;;;;8228314;28;20231;-74
2022/07/19 06:50:35;;;;;;;3.75;1.85;;;;;29.60;96953.00;;;;8227859;28;20274;-74
2022/07/19 06:54:44;;;;;;;2.60;2.03;;;;;30.10;96958.00;;;;8242461;28;20246;-74
2022/07/19 06:58:47;;;;;;;4.50;1.80;;;;;30.50;96955.00;;;;8233789;28;20305;-75
2022/07/19 07:02:50;;;;;;;3.47;2.17;;;;;30.70;96958.00;;;;8239032;28;20223;-74
2022/07/19 07:06:56;;;;;;;3.83;1.70;;;;;30.80;96965.00;;;;8240667;28;20254;-75
2022/07/19 07:10:59;;;;;;;2.55;2.35;;;;;30.80;96959.00;;;;8234002;28;20321;-75
2022/07/19 07:15:02;;;;;;;2.67;2.47;;;;;31.20;96962.00;;;;8241951;28;20323;-75
2022/07/19 07:19:05;;;;;;;3.00;2.03;;;;;31.60;96959.00;;;;8233245;28;20704;-75
2022/07/19 07:23:10;;;;;;;4.80;2.20;;;;;31.90;96963.00;;;;8237049;28;20241;-75
2022/07/19 07:27:13;;;;;;;7.70;1.95;;;;;32.50;96965.00;;;;8236949;28;20254;-74
2022/07/19 07:31:17;;;;;;;6.68;2.20;;;;;32.70;96961.00;;;;8232024;28;20228;-74
2022/07/19 07:35:20;;;;;;;8.82;2.15;;;;;33.00;96954.00;;;;8240797;28;20629;-74
2022/07/19 07:39:25;;;;;;;3.70;2.10;;;;;33.30;96957.00;;;;8241227;28;20226;-74
2022/07/19 07:43:28;;;;;;;5.47;2.03;;;;;33.50;96954.00;;;;8234697;28;20230;-74
2022/07/19 07:47:31;;;;;;;7.78;2.00;;;;;33.90;96953.00;;;;8239633;28;20223;-74
2022/07/19 07:51:35;;;;;;;4.65;2.08;;;;;34.20;96951.00;;;;8235841;28;20245;-74
2022/07/19 07:55:48;;;;;;;2.03;1.85;;;;;34.40;96948.00;;;;8228258;28;20238;-74
2022/07/19 07:59:52;;;;;;;2.35;1.77;;;;;34.60;96958.00;;;;8239922;28;20264;-74
2022/07/19 08:03:55;;;;;;;5.43;2.20;;;;;35.00;96952.00;;;;8240957;28;20325;-74
2022/07/19 08:07:59;;;;;;;2.20;2.00;;;;;35.10;96951.00;;;;8243455;28;20631;-73
2022/07/19 08:12:04;;;;;;;3.60;2.17;;;;;35.10;96946.00;;;;8244489;28;20249;-74
2022/07/19 08:16:07;;;;;;;2.25;1.60;;;;;35.10;96941.00;;;;8243783;28;20218;-74
2022/07/19 08:20:12;;;;;;;3.78;2.05;;;;;35.40;96941.00;;;;8236907;28;20349;-75
2022/07/19 08:24:16;;;;;;;3.63;1.80;;;;;36.00;96933.00;;;;8238924;28;20261;-75
2022/07/19 08:28:20;;;;;;;3.85;2.10;;;;;36.50;96940.00;;;;8241853;28;20233;-75
2022/07/19 08:32:24;;;;;;;4.20;2.10;;;;;36.60;96938.00;;;;8237320;28;20845;-74
2022/07/19 08:36:28;;;;;;;5.78;2.20;;;;;37.00;96941.00;;;;8239486;28;20223;-76
2022/07/19 08:40:35;;;;;;;3.63;1.70;;;;;37.00;96938.00;;;;8239979;28;20603;-76
2022/07/19 08:44:42;;;;;;;6.80;1.67;;;;;37.20;96937.00;;;;8240889;28;20743;-76
2022/07/19 08:48:47;;;;;;;1.83;1.60;;;;;37.40;96945.00;;;;8240838;28;20253;-77
2022/07/19 08:52:50;;;;;;;2.65;1.80;;;;;37.50;96934.00;;;;8233501;28;20366;-76
2022/07/19 09:01:15;;;;;;;4.90;1.90;;;;;38.00;96936.00;;;;8236391;28;20669;-73
2022/07/19 09:05:18;;;;;;;2.00;1.80;;;;;38.00;96921.00;;;;8241106;28;20255;-73
2022/07/19 09:09:24;;;;;;;3.08;1.90;;;;;38.20;96928.00;;;;8242598;28;20685;-78
2022/07/19 09:13:28;;;;;;;2.03;1.45;;;;;38.40;96924.00;;;;8245025;28;20250;-72
2022/07/19 09:17:32;;;;;;;4.65;1.73;;;;;38.40;96924.00;;;;8237911;28;20226;-79
2022/07/19 09:21:51;;;;;;;1.95;1.63;;;;;38.30;96927.00;;;;8249553;28;20362;-78
2022/07/19 09:25:56;;;;;;;3.05;1.77;;;;;38.60;96929.00;;;;8240101;28;20572;-78
2022/07/19 09:30:01;;;;;;;3.17;1.73;;;;;38.70;96924.00;;;;8250271;28;20309;-78
2022/07/19 09:34:05;;;;;;;1.65;1.50;;;;;38.80;96932.00;;;;8244319;28;20766;-78
2022/07/19 09:38:20;;;;;;;8.55;1.95;;;;;38.90;96918.00;;;;8245773;28;20749;-79
2022/07/19 09:42:25;;;;;;;1.83;1.73;;;;;39.10;96925.00;;;;8241746;28;20310;-78
2022/07/19 09:46:30;;;;;;;1.83;1.30;;;;;39.40;96934.00;;;;8243141;28;20583;-74
2022/07/19 09:50:35;;;;;;;2.33;1.70;;;;;39.20;96920.00;;;;8243283;28;20218;-74
2022/07/19 09:54:39;;;;;;;3.90;1.80;;;;;39.50;96925.00;;;;8242944;28;20310;-73
2022/07/19 09:58:44;;;;;;;4.90;1.90;;;;;39.40;96921.00;;;;8251318;28;20389;-72
2022/07/19 10:02:50;;;;;;;2.17;2.08;;;;;39.50;96928.00;;;;8234268;28;20234;-72
2022/07/19 10:06:55;;;;;;;3.90;2.00;;;;;39.60;96922.00;;;;8244587;28;20230;-72
2022/07/19 10:10:59;;;;;;;2.55;2.13;;;;;39.90;96916.00;;;;8241292;28;20222;-73
2022/07/19 10:15:02;;;;;;;3.55;2.15;;;;;40.30;96917.00;;;;8243631;28;20234;-72
2022/07/19 10:19:11;;;;;;;3.90;1.90;;;;;40.60;96913.00;;;;8243166;28;20311;-75
2022/07/19 10:23:16;;;;;;;6.03;2.05;;;;;40.50;96912.00;;;;8231423;28;20967;-74
2022/07/19 10:27:37;;;;;;;2.45;2.05;;;;;40.30;96906.00;;;;8234376;28;20233;-73
2022/07/19 10:31:40;;;;;;;2.15;2.00;;;;;40.40;96906.00;;;;8233507;28;20310;-78
2022/07/19 10:35:44;;;;;;;2.40;1.85;;;;;40.30;96909.00;;;;8254061;28;20231;-71
2022/07/19 10:39:58;;;;;;;2.28;2.08;;;;;40.40;96897.00;;;;8241545;28;20653;-74
2022/07/19 10:44:09;;;;;;;2.05;1.92;;;;;40.70;96903.00;;;;8239786;28;20808;-72
2022/07/19 10:48:15;;;;;;;3.28;2.40;;;;;40.80;96900.00;;;;8236546;28;20241;-71
2022/07/19 10:52:34;;;;;;;3.53;2.03;;;;;41.00;96895.00;;;;8236278;28;20223;-70
2022/07/19 10:56:55;;;;;;;2.13;2.03;;;;;41.20;96890.00;;;;8239721;28;20297;-71
2022/07/19 11:01:15;;;;;;;2.30;2.20;;;;;41.40;96893.00;;;;8240289;28;20304;-71
2022/07/19 11:05:22;;;;;;;3.13;2.10;;;;;41.20;96876.00;;;;8250877;28;20230;-71
2022/07/19 11:09:40;;;;;;;4.53;2.10;;;;;41.10;96868.00;;;;8243474;28;20305;-71
2022/07/19 11:13:47;;;;;;;5.05;2.30;;;;;41.30;96870.00;;;;8250451;28;20223;-71
2022/07/19 11:17:55;;;;;;;2.20;2.10;;;;;41.50;96870.00;;;;8248118;28;20230;-70
2022/07/19 11:22:01;;;;;;;3.92;2.10;;;;;41.60;96858.00;;;;8252047;28;20254;-72
2022/07/19 11:26:12;;;;;;;3.90;3.38;;;;;41.70;96860.00;;;;8247846;28;20309;-71
2022/07/19 11:30:17;;;;;;;3.45;2.83;;;;;41.90;96854.00;;;;8243039;28;20272;-72
2022/07/19 11:34:22;;;;;;;3.28;2.30;;;;;42.20;96858.00;;;;8252459;28;20233;-72
2022/07/19 11:38:36;;;;;;;4.88;2.30;;;;;42.20;96860.00;;;;8248573;28;20228;-71
2022/07/19 11:42:42;;;;;;;3.28;2.35;;;;;42.30;96850.00;;;;8243961;28;20210;-71
2022/07/19 11:47:06;;;;;;;3.35;2.55;;;;;42.30;96845.00;;;;8246876;28;20648;-71
2022/07/19 11:51:11;;;;;;;10.40;2.28;;;;;42.30;96851.00;;;;8244983;28;20687;-70
2022/07/19 11:55:15;;;;;;;5.75;2.60;;;;;42.50;96842.00;;;;8235175;28;20238;-72
2022/07/19 11:59:18;;;;;;;3.92;2.50;;;;;42.50;96837.00;;;;8234299;28;20224;-72
2022/07/19 12:03:23;;;;;;;6.63;2.25;;;;;42.60;96843.00;;;;8239862;28;20237;-74
2022/07/19 12:07:27;;;;;;;4.45;2.85;;;;;42.70;96832.00;;;;8240953;28;20233;-72
2022/07/19 12:11:30;;;;;;;2.67;2.40;;;;;42.80;96843.00;;;;8233716;28;20528;-71
2022/07/19 12:15:48;;;;;;;4.28;2.00;;;;;42.80;96842.00;;;;8234550;28;20258;-73
2022/07/19 12:20:08;;;;;;;5.35;2.15;;;;;42.60;96840.00;;;;8245236;28;20241;-72
2022/07/19 12:24:32;;;;;;;5.45;2.22;;;;;42.30;96836.00;;;;8243782;28;20565;-73
2022/07/19 12:28:35;;;;;;;4.93;2.13;;;;;42.10;96820.00;;;;8261208;28;20222;-73
2022/07/19 12:32:41;;;;;;;3.95;2.17;;;;;42.10;96823.00;;;;8239971;28;20579;-73
2022/07/19 12:36:47;;;;;;;2.85;2.30;;;;;42.20;96816.00;;;;8241325;28;20226;-73
2022/07/19 12:40:50;;;;;;;4.47;2.40;;;;;41.80;96817.00;;;;8230801;28;20233;-73
2022/07/19 12:44:54;;;;;;;3.13;2.33;;;;;40.80;96812.00;;;;8247734;28;20661;-73
2022/07/19 12:48:57;;;;;;;3.10;1.90;;;;;40.30;96809.00;;;;8243862;28;20240;-72
2022/07/19 12:53:03;;;;;;;4.20;2.13;;;;;39.70;96814.00;;;;8251039;28;20734;-74
2022/07/19 12:57:07;;;;;;;2.00;1.90;;;;;39.00;96813.00;;;;8258969;28;20238;-74
2022/07/19 13:01:12;;;;;;;2.40;2.20;;;;;38.60;96808.00;;;;8268172;28;20254;-73
2022/07/19 13:05:16;;;;;;;4.93;2.28;;;;;38.40;96793.00;;;;8245093;28;20226;-71
2022/07/19 13:09:21;;;;;;;3.65;2.55;;;;;38.30;96792.00;;;;8258570;28;20759;-68
2022/07/19 13:13:24;;;;;;;5.38;2.30;;;;;38.40;96784.00;;;;8254506;28;20310;-74
2022/07/19 13:17:27;;;;;;;2.53;1.90;;;;;38.40;96781.00;;;;8242421;28;20253;-72
2022/07/19 13:21:30;;;;;;;5.00;2.05;;;;;38.70;96774.00;;;;8254943;28;20230;-72
2022/07/19 13:25:35;;;;;;;5.70;2.50;;;;;39.20;96778.00;;;;8260183;28;20791;-72
2022/07/19 13:29:48;;;;;;;3.05;2.25;;;;;39.90;96773.00;;;;8255758;28;20306;-70
2022/07/19 13:33:51;;;;;;;5.85;2.55;;;;;40.50;96774.00;;;;8254568;28;20243;-68
2022/07/19 13:37:54;;;;;;;5.15;2.28;;;;;41.00;96771.00;;;;8236901;28;20660;-67
2022/07/19 13:41:59;;;;;;;4.00;2.13;;;;;41.30;96775.00;;;;8249175;28;20244;-67
2022/07/19 13:46:02;;;;;;;2.53;2.00;;;;;41.90;96766.00;;;;8242249;28;20692;-67
2022/07/19 13:50:07;;;;;;;3.20;2.13;;;;;42.10;96760.00;;;;8242941;28;20261;-67
2022/07/19 13:54:11;;;;;;;6.30;2.40;;;;;42.30;96763.00;;;;8243384;28;20231;-67
2022/07/19 13:58:16;;;;;;;2.60;2.40;;;;;42.60;96748.00;;;;8249492;28;20686;-68
2022/07/19 14:02:19;;;;;;;4.10;2.33;;;;;42.80;96750.00;;;;8244976;28;20329;-67
2022/07/19 14:06:25;;;;;;;7.25;2.50;;;;;42.80;96747.00;;;;8239108;28;20281;-68
2022/07/19 14:10:29;;;;;;;4.45;2.00;;;;;42.80;96733.00;;;;8258315;28;20226;-68
2022/07/19 14:14:33;;;;;;;3.80;2.38;;;;;42.70;96733.00;;;;8248650;28;22348;-67
2022/07/19 14:18:38;;;;;;;3.80;2.53;;;;;42.70;96730.00;;;;8254217;28;20227;-68
2022/07/19 14:22:41;;;;;;;4.97;2.42;;;;;42.60;96730.00;;;;8251520;28;20240;-68
2022/07/19 14:26:45;;;;;;;4.20;2.22;;;;;42.60;96730.00;;;;8260187;28;20587;-68
2022/07/19 14:30:50;;;;;;;3.47;2.97;;;;;42.60;96723.00;;;;8250821;28;20712;-67
2022/07/19 14:34:53;;;;;;;3.38;2.28;;;;;42.70;96711.00;;;;8245280;28;20226;-69
2022/07/19 14:38:56;;;;;;;3.78;2.35;;;;;42.50;96714.00;;;;8258634;28;20333;-67
2022/07/19 14:42:59;;;;;;;2.58;2.30;;;;;42.10;96716.00;;;;8242259;28;20317;-68
2022/07/19 14:47:05;;;;;;;5.63;2.78;;;;;41.80;96707.00;;;;8236767;28;20828;-68
2022/07/19 14:51:09;;;;;;;7.00;2.35;;;;;42.10;96700.00;;;;8258707;28;20233;-70
2022/07/19 14:55:12;;;;;;;7.57;3.20;;;;;42.30;96705.00;;;;8235962;28;20297;-71
2022/07/19 14:59:16;;;;;;;6.63;2.42;;;;;42.50;96700.00;;;;8257926;28;20245;-73
2022/07/19 15:03:21;;;;;;;3.88;2.38;;;;;42.70;96697.00;;;;8240797;28;20230;-73
2022/07/19 15:07:25;;;;;;;6.85;2.60;;;;;42.80;96692.00;;;;8247329;28;20225;-72
2022/07/19 15:11:32;;;;;;;3.97;2.30;;;;;42.80;96689.00;;;;8246760;28;20239;-73
2022/07/19 15:15:35;;;;;;;2.80;2.20;;;;;42.60;96688.00;;;;8242153;28;20292;-74
2022/07/19 15:19:40;;;;;;;3.97;2.58;;;;;42.60;96677.00;;;;8236121;28;20609;-73
2022/07/19 15:23:43;;;;;;;4.50;2.40;;;;;42.40;96680.00;;;;8229557;28;20225;-73
2022/07/19 15:27:46;;;;;;;7.80;3.10;;;;;42.30;96680.00;;;;8255064;28;20632;-74
2022/07/19 15:31:50;;;;;;;4.65;2.70;;;;;42.00;96664.00;;;;8250327;28;20223;-73
2022/07/19 15:35:54;;;;;;;4.80;2.60;;;;;41.90;96669.00;;;;8243434;28;20225;-73
2022/07/19 15:39:58;;;;;;;4.32;2.72;;;;;41.70;96664.00;;;;8260857;28;20234;-73
2022/07/19 15:44:02;;;;;;;7.97;2.70;;;;;41.60;96667.00;;;;8255858;28;20226;-74
2022/07/19 15:48:05;;;;;;;4.40;2.85;;;;;41.60;96660.00;;;;8235807;28;20261;-74
2022/07/19 15:52:10;;;;;;;4.85;2.40;;;;;41.60;96661.00;;;;8249576;28;20222;-73
2022/07/19 15:56:13;;;;;;;4.05;2.60;;;;;41.60;96663.00;;;;8249114;28;20309;-74
2022/07/19 16:00:17;;;;;;;7.78;2.70;;;;;41.60;96651.00;;;;8249018;28;20245;-75
2022/07/19 16:04:20;;;;;;;7.40;2.85;;;;;41.40;96654.00;;;;8257196;28;20314;-74
2022/07/19 16:08:26;;;;;;;9.70;3.03;;;;;41.10;96649.00;;;;8250836;28;20944;-74
2022/07/19 16:12:30;;;;;;;6.45;2.60;;;;;41.10;96638.00;;;;8254389;28;20222;-74
2022/07/19 16:16:33;;;;;;;6.10;2.90;;;;;41.10;96633.00;;;;8246382;28;20238;-73
2022/07/19 16:20:36;;;;;;;3.25;2.58;;;;;41.00;96629.00;;;;8246913;28;20225;-73
2022/07/19 16:24:41;;;;;;;3.33;2.30;;;;;41.10;96629.00;;;;8242500;28;20305;-73
2022/07/19 16:28:44;;;;;;;6.38;2.85;;;;;41.10;96635.00;;;;8257778;28;20258;-74
2022/07/19 16:32:48;;;;;;;7.43;2.88;;;;;41.20;96637.00;;;;8247688;28;20230;-72
2022/07/19 16:36:51;;;;;;;3.63;2.63;;;;;41.10;96625.00;;;;8238802;28;20629;-72
2022/07/19 16:40:56;;;;;;;4.03;2.45;;;;;41.20;96622.00;;;;8258446;28;20575;-73
2022/07/19 16:44:59;;;;;;;5.30;2.88;;;;;41.30;96624.00;;;;8248914;28;20265;-73
2022/07/19 16:49:03;;;;;;;3.75;2.30;;;;;41.10;96613.00;;;;8246567;28;20847;-72
2022/07/19 16:53:07;;;;;;;4.18;2.70;;;;;41.30;96623.00;;;;8242658;28;20325;-72
2022/07/19 16:57:12;;;;;;;3.75;2.35;;;;;41.40;96623.00;;;;8242547;28;20257;-73
2022/07/19 17:01:20;;;;;;;5.38;2.60;;;;;41.60;96619.00;;;;8243441;28;20624;-73
2022/07/19 17:05:23;;;;;;;4.57;2.67;;;;;41.70;96619.00;;;;8245830;28;20234;-74
2022/07/19 17:09:26;;;;;;;6.40;2.50;;;;;41.90;96616.00;;;;8252502;28;20219;-74
2022/07/19 17:13:31;;;;;;;3.90;2.47;;;;;41.90;96619.00;;;;8247631;28;20226;-74
2022/07/19 17:17:35;;;;;;;5.07;2.60;;;;;42.00;96617.00;;;;8229893;28;20459;-76
2022/07/19 17:21:39;;;;;;;6.45;2.60;;;;;41.80;96625.00;;;;8241361;28;20257;-72
2022/07/19 17:25:46;;;;;;;3.20;2.58;;;;;41.60;96621.00;;;;8232098;28;20714;-71
2022/07/19 17:29:50;;;;;;;4.68;2.80;;;;;41.50;96617.00;;;;8250904;28;20246;-71
2022/07/19 17:33:54;;;;;;;4.93;2.78;;;;;41.50;96617.00;;;;8246203;28;20229;-71
2022/07/19 17:38:02;;;;;;;4.10;2.45;;;;;41.50;96620.00;;;;8233486;28;20698;-73
2022/07/19 17:42:05;;;;;;;5.15;2.63;;;;;41.60;96608.00;;;;8252324;28;20714;-71
2022/07/19 17:46:10;;;;;;;5.40;2.42;;;;;41.70;96606.00;;;;8259770;28;20230;-71
2022/07/19 17:50:13;;;;;;;3.22;2.60;;;;;41.50;96610.00;;;;8254079;28;20222;-71
2022/07/19 17:54:16;;;;;;;8.70;2.47;;;;;41.40;96613.00;;;;8237198;28;20303;-72
2022/07/19 17:58:20;;;;;;;9.15;2.40;;;;;41.30;96612.00;;;;8259187;28;20333;-72
2022/07/19 18:02:25;;;;;;;3.75;2.70;;;;;41.20;96619.00;;;;8251326;28;20325;-72
2022/07/19 18:06:48;;;;;;;4.32;2.35;;;;;40.30;96618.00;;;;8236341;28;20631;-72
2022/07/19 18:10:52;;;;;;;5.13;2.40;;;;;39.00;96616.00;;;;8234980;28;20226;-72
2022/07/19 18:14:55;;;;;;;5.25;2.97;;;;;37.80;96614.00;;;;8251585;28;20236;-71
2022/07/19 18:18:59;;;;;;;4.90;2.75;;;;;36.90;96618.00;;;;8244504;28;20231;-72
2022/07/19 18:23:03;;;;;;;8.88;2.90;;;;;36.10;96611.00;;;;8245719;28;20250;-72
2022/07/19 18:27:08;;;;;;;33.00;3.40;;;;;35.40;96610.00;;;;8239732;28;20245;-74
2022/07/19 18:31:11;;;;;;;7.75;2.97;;;;;34.80;96615.00;;;;8244062;28;20666;-72
2022/07/19 18:35:16;;;;;;;4.32;2.58;;;;;34.30;96605.00;;;;8251154;28;20244;-72
2022/07/19 18:39:20;;;;;;;7.70;2.75;;;;;33.70;96602.00;;;;8258753;28;20258;-72
2022/07/19 18:43:23;;;;;;;3.05;2.78;;;;;33.30;96608.00;;;;8241884;28;20736;-72
2022/07/19 18:47:26;;;;;;;2.97;2.70;;;;;32.90;96603.00;;;;8248916;28;20309;-71
2022/07/19 18:51:31;;;;;;;2.85;2.53;;;;;32.60;96605.00;;;;8254685;28;20572;-72
2022/07/19 18:55:34;;;;;;;4.75;2.38;;;;;32.20;96604.00;;;;8242583;28;20237;-72
2022/07/19 18:59:37;;;;;;;7.65;2.83;;;;;31.80;96611.00;;;;8246689;28;20231;-71
2022/07/19 19:03:41;;;;;;;4.60;3.08;;;;;31.40;96608.00;;;;8253827;28;20329;-72
2022/07/19 19:07:46;;;;;;;8.65;2.95;;;;;31.10;96600.00;;;;8240498;28;20269;-69
2022/07/19 19:11:49;;;;;;;7.63;2.47;;;;;30.80;96602.00;;;;8240848;28;20309;-69
2022/07/19 19:15:52;;;;;;;6.80;2.90;;;;;30.50;96599.00;;;;8243342;28;20250;-69
2022/07/19 19:19:55;;;;;;;4.82;2.70;;;;;30.30;96608.00;;;;8252851;28;20226;-70
2022/07/19 19:24:00;;;;;;;7.63;3.05;;;;;30.00;96603.00;;;;8239892;28;20659;-69
2022/07/19 19:28:04;;;;;;;3.97;2.53;;;;;29.70;96613.00;;;;8243364;28;20252;-70
2022/07/19 19:32:07;;;;;;;6.70;2.90;;;;;29.50;96608.00;;;;8246781;28;20389;-70
2022/07/19 19:36:11;;;;;;;5.95;2.72;;;;;29.10;96615.00;;;;8242414;28;20285;-70
2022/07/19 19:40:16;;;;;;;12.02;3.25;;;;;28.70;96625.00;;;;8247578;28;20301;-70
2022/07/19 19:44:19;;;;;;;11.98;3.40;;;;;28.30;96621.00;;;;8248768;28;20717;-70
2022/07/19 19:48:23;;;;;;;10.63;3.17;;;;;27.90;96625.00;;;;8248185;28;20238;-70
2022/07/19 19:52:26;;;;;;;8.73;2.90;;;;;27.50;96626.00;;;;8249232;28;20702;-70
2022/07/19 19:56:32;;;;;;;7.70;3.15;;;;;27.20;96632.00;;;;8244653;28;20233;-69
2022/07/19 20:00:36;;;;;;;5.85;3.15;;;;;26.80;96637.00;;;;8247254;28;20288;-70
2022/07/19 20:04:40;;;;;;;9.25;3.53;;;;;26.40;96632.00;;;;8245460;28;20231;-69
2022/07/19 20:08:43;;;;;;;7.25;3.22;;;;;26.10;96637.00;;;;8231866;28;20707;-69
2022/07/19 20:12:50;;;;;;;8.95;2.92;;;;;25.90;96630.00;;;;8214160;28;20231;-68
2022/07/19 20:16:54;;;;;;;11.32;3.25;;;;;25.60;96624.00;;;;8209167;28;20223;-68
2022/07/19 20:20:57;;;;;;;17.75;3.58;;;;;25.30;96627.00;;;;8206700;28;20230;-69
2022/07/19 20:25:10;;;;;;;33.97;3.88;;;;;25.20;96627.00;;;;8210511;28;20274;-69
2022/07/19 20:29:15;;;;;;;21.83;3.58;;;;;25.20;96626.00;;;;8205599;28;20239;-71